Terminal Aerodrome Forecast
Issued by NWS Boston, MA

Home | Current Version | Previous Version | Text Only | Print | Product List | Glossary On
Versions: 1 2 3 4 5 6 7 8 9 10 11 12 13 14 15 16 17 18 19 20 21
145
FTUS41 KBOX 221526 AAA
TAFORH
TAF AMD
KORH 221526Z 2215/2312 30010G18KT P6SM FEW200
     FM221800 28014G21KT P6SM SCT060
     FM230200 29009KT P6SM FEW250=

USA.gov is the U.S. government's official web portal to all federal, state and local government web resources and services.